sensor_id;sensor_type;location;lat;lon;timestamp;temperature;humidity
21085;DHT22;34247;50.064;19.970;2022-08-18T00:00:52;36.20;37.30
21085;DHT22;34247;50.064;19.970;2022-08-18T00:02:10;36.20;37.30
21085;DHT22;34247;50.064;19.970;2022-08-18T00:03:20;36.20;37.40
21085;DHT22;34247;50.064;19.970;2022-08-18T00:04:46;36.20;37.40
21085;DHT22;34247;50.064;19.970;2022-08-18T00:05:51;36.20;37.50
21085;DHT22;34247;50.064;19.970;2022-08-18T00:06:55;36.20;37.50
21085;DHT22;34247;50.064;19.970;2022-08-18T00:08:00;36.20;37.50
21085;DHT22;34247;50.064;19.970;2022-08-18T00:09:06;36.10;37.40
21085;DHT22;34247;50.064;19.970;2022-08-18T00:10:11;36.10;37.50
21085;DHT22;34247;50.064;19.970;2022-08-18T00:11:21;36.10;37.60
21085;DHT22;34247;50.064;19.970;2022-08-18T00:12:34;36.10;38.30
21085;DHT22;34247;50.064;19.970;2022-08-18T00:13:43;36.10;37.50
21085;DHT22;34247;50.064;19.970;2022-08-18T00:14:48;36.10;37.50
21085;DHT22;34247;50.064;19.970;2022-08-18T00:15:52;36.10;37.50
21085;DHT22;34247;50.064;19.970;2022-08-18T00:16:56;36.10;37.50
21085;DHT22;34247;50.064;19.970;2022-08-18T00:18:00;36.10;37.50
21085;DHT22;34247;50.064;19.970;2022-08-18T00:19:04;36.10;38.10
21085;DHT22;34247;50.064;19.970;2022-08-18T00:20:22;36.10;37.50
21085;DHT22;34247;50.064;19.970;2022-08-18T00:21:27;36.10;37.50
21085;DHT22;34247;50.064;19.970;2022-08-18T00:22:31;36.10;37.60
21085;DHT22;34247;50.064;19.970;2022-08-18T00:23:35;36.10;37.60
21085;DHT22;34247;50.064;19.970;2022-08-18T00:24:43;36.10;37.50
21085;DHT22;34247;50.064;19.970;2022-08-18T00:25:51;36.10;37.50
21085;DHT22;34247;50.064;19.970;2022-08-18T00:26:55;36.10;37.50
21085;DHT22;34247;50.064;19.970;2022-08-18T00:27:59;36.10;37.50
21085;DHT22;34247;50.064;19.970;2022-08-18T00:29:03;36.10;37.40
21085;DHT22;34247;50.064;19.970;2022-08-18T00:30:12;36.10;37.40
21085;DHT22;34247;50.064;19.970;2022-08-18T00:31:19;36.10;37.40
21085;DHT22;34247;50.064;19.970;2022-08-18T00:32:34;36.00;37.30
21085;DHT22;34247;50.064;19.970;2022-08-18T00:33:41;36.10;37.30
21085;DHT22;34247;50.064;19.970;2022-08-18T00:34:45;36.00;37.20
21085;DHT22;34247;50.064;19.970;2022-08-18T00:35:50;36.00;37.20
21085;DHT22;34247;50.064;19.970;2022-08-18T00:36:54;36.10;37.20
21085;DHT22;34247;50.064;19.970;2022-08-18T00:38:01;36.10;37.20
21085;DHT22;34247;50.064;19.970;2022-08-18T00:39:07;36.00;37.20
21085;DHT22;34247;50.064;19.970;2022-08-18T00:40:20;36.00;37.20
21085;DHT22;34247;50.064;19.970;2022-08-18T00:41:30;36.00;37.20
21085;DHT22;34247;50.064;19.970;2022-08-18T00:42:41;36.00;37.00
21085;DHT22;34247;50.064;19.970;2022-08-18T00:43:49;36.00;37.10
21085;DHT22;34247;50.064;19.970;2022-08-18T00:44:55;36.00;37.10
21085;DHT22;34247;50.064;19.970;2022-08-18T00:45:59;36.00;37.20
21085;DHT22;34247;50.064;19.970;2022-08-18T00:47:04;36.00;37.20
21085;DHT22;34247;50.064;19.970;2022-08-18T00:48:11;36.00;37.20
21085;DHT22;34247;50.064;19.970;2022-08-18T00:49:16;36.00;37.10
21085;DHT22;34247;50.064;19.970;2022-08-18T00:50:32;35.90;37.10
21085;DHT22;34247;50.064;19.970;2022-08-18T00:51:49;35.90;37.10
21085;DHT22;34247;50.064;19.970;2022-08-18T00:53:28;35.90;37.20
21085;DHT22;34247;50.064;19.970;2022-08-18T00:54:40;35.90;37.10
21085;DHT22;34247;50.064;19.970;2022-08-18T00:55:48;35.90;37.20
21085;DHT22;34247;50.064;19.970;2022-08-18T00:57:02;35.90;37.20
21085;DHT22;34247;50.064;19.970;2022-08-18T00:58:12;35.90;37.30
21085;DHT22;34247;50.064;19.970;2022-08-18T00:59:44;35.90;37.30
21085;DHT22;34247;50.064;19.970;2022-08-18T01:00:53;35.90;37.20
21085;DHT22;34247;50.064;19.970;2022-08-18T01:01:59;35.80;37.10
21085;DHT22;34247;50.064;19.970;2022-08-18T01:03:10;35.80;37.20
21085;DHT22;34247;50.064;19.970;2022-08-18T01:04:37;35.80;37.20
21085;DHT22;34247;50.064;19.970;2022-08-18T01:05:54;35.80;37.20
21085;DHT22;34247;50.064;19.970;2022-08-18T01:07:09;35.80;37.30
21085;DHT22;34247;50.064;19.970;2022-08-18T01:08:23;35.80;37.30
21085;DHT22;34247;50.064;19.970;2022-08-18T01:09:31;35.80;37.30
21085;DHT22;34247;50.064;19.970;2022-08-18T01:10:36;35.80;37.40
21085;DHT22;34247;50.064;19.970;2022-08-18T01:11:41;35.80;37.30
21085;DHT22;34247;50.064;19.970;2022-08-18T01:12:51;35.80;37.30
21085;DHT22;34247;50.064;19.970;2022-08-18T01:13:57;35.80;37.30
21085;DHT22;34247;50.064;19.970;2022-08-18T01:15:01;35.80;37.40
21085;DHT22;34247;50.064;19.970;2022-08-18T01:16:07;35.70;37.30
21085;DHT22;34247;50.064;19.970;2022-08-18T01:17:31;35.70;37.30
21085;DHT22;34247;50.064;19.970;2022-08-18T01:18:53;35.70;37.40
21085;DHT22;34247;50.064;19.970;2022-08-18T01:23:44;35.70;37.40
21085;DHT22;34247;50.064;19.970;2022-08-18T01:24:51;35.70;37.50
21085;DHT22;34247;50.064;19.970;2022-08-18T01:26:19;35.70;37.50
21085;DHT22;34247;50.064;19.970;2022-08-18T01:27:25;35.70;37.40
21085;DHT22;34247;50.064;19.970;2022-08-18T01:28:37;35.70;37.50
21085;DHT22;34247;50.064;19.970;2022-08-18T01:29:45;35.70;37.50
21085;DHT22;34247;50.064;19.970;2022-08-18T01:30:53;35.70;37.60
21085;DHT22;34247;50.064;19.970;2022-08-18T01:32:00;35.70;37.60
21085;DHT22;34247;50.064;19.970;2022-08-18T01:33:05;35.70;37.60
21085;DHT22;34247;50.064;19.970;2022-08-18T01:34:15;35.70;37.60
21085;DHT22;34247;50.064;19.970;2022-08-18T01:35:21;35.70;37.60
21085;DHT22;34247;50.064;19.970;2022-08-18T01:36:28;35.70;37.70
21085;DHT22;34247;50.064;19.970;2022-08-18T01:37:32;35.70;37.70
21085;DHT22;34247;50.064;19.970;2022-08-18T01:38:35;35.70;37.70
21085;DHT22;34247;50.064;19.970;2022-08-18T01:39:40;35.70;37.60
21085;DHT22;34247;50.064;19.970;2022-08-18T01:41:04;35.70;37.60
21085;DHT22;34247;50.064;19.970;2022-08-18T01:42:29;35.60;37.70
21085;DHT22;34247;50.064;19.970;2022-08-18T01:43:35;35.60;37.70
21085;DHT22;34247;50.064;19.970;2022-08-18T01:44:40;35.60;37.70
21085;DHT22;34247;50.064;19.970;2022-08-18T01:45:44;35.60;37.70
21085;DHT22;34247;50.064;19.970;2022-08-18T01:46:48;35.60;37.70
21085;DHT22;34247;50.064;19.970;2022-08-18T01:47:56;35.60;37.70
21085;DHT22;34247;50.064;19.970;2022-08-18T01:49:03;35.60;37.70
21085;DHT22;34247;50.064;19.970;2022-08-18T01:50:08;35.60;37.70
21085;DHT22;34247;50.064;19.970;2022-08-18T01:51:15;35.60;37.70
21085;DHT22;34247;50.064;19.970;2022-08-18T01:52:22;35.60;37.80
21085;DHT22;34247;50.064;19.970;2022-08-18T01:53:26;35.60;37.80
21085;DHT22;34247;50.064;19.970;2022-08-18T01:54:32;35.60;37.80
21085;DHT22;34247;50.064;19.970;2022-08-18T01:55:39;35.60;37.80
21085;DHT22;34247;50.064;19.970;2022-08-18T01:56:47;35.60;37.80
21085;DHT22;34247;50.064;19.970;2022-08-18T01:57:51;35.60;37.80
21085;DHT22;34247;50.064;19.970;2022-08-18T01:58:56;35.60;37.80
21085;DHT22;34247;50.064;19.970;2022-08-18T02:00:00;35.60;37.80
21085;DHT22;34247;50.064;19.970;2022-08-18T02:01:04;35.60;37.90
21085;DHT22;34247;50.064;19.970;2022-08-18T02:02:12;35.60;37.90
21085;DHT22;34247;50.064;19.970;2022-08-18T02:03:36;35.60;37.90
21085;DHT22;34247;50.064;19.970;2022-08-18T02:04:42;35.60;37.90
21085;DHT22;34247;50.064;19.970;2022-08-18T02:05:48;35.60;37.90
21085;DHT22;34247;50.064;19.970;2022-08-18T02:06:55;35.60;37.90
21085;DHT22;34247;50.064;19.970;2022-08-18T02:08:02;35.60;37.90
21085;DHT22;34247;50.064;19.970;2022-08-18T02:09:07;35.50;37.90
21085;DHT22;34247;50.064;19.970;2022-08-18T02:10:13;35.60;37.90
21085;DHT22;34247;50.064;19.970;2022-08-18T02:11:39;35.50;37.90
21085;DHT22;34247;50.064;19.970;2022-08-18T02:12:43;35.60;38.00
21085;DHT22;34247;50.064;19.970;2022-08-18T02:13:47;35.60;38.10
21085;DHT22;34247;50.064;19.970;2022-08-18T02:14:51;35.50;38.00
21085;DHT22;34247;50.064;19.970;2022-08-18T02:15:55;35.50;38.00
21085;DHT22;34247;50.064;19.970;2022-08-18T02:17:00;35.60;38.20
21085;DHT22;34247;50.064;19.970;2022-08-18T02:18:15;35.60;38.20
21085;DHT22;34247;50.064;19.970;2022-08-18T02:19:45;35.50;38.00
21085;DHT22;34247;50.064;19.970;2022-08-18T02:20:50;35.50;38.00
21085;DHT22;34247;50.064;19.970;2022-08-18T02:21:53;35.50;38.10
21085;DHT22;34247;50.064;19.970;2022-08-18T02:22:57;35.50;38.10
21085;DHT22;34247;50.064;19.970;2022-08-18T02:24:01;35.50;38.10
21085;DHT22;34247;50.064;19.970;2022-08-18T02:25:07;35.50;38.10
21085;DHT22;34247;50.064;19.970;2022-08-18T02:26:14;35.50;38.10
21085;DHT22;34247;50.064;19.970;2022-08-18T02:27:20;35.50;38.10
21085;DHT22;34247;50.064;19.970;2022-08-18T02:28:24;35.50;38.00
21085;DHT22;34247;50.064;19.970;2022-08-18T02:29:33;35.50;38.10
21085;DHT22;34247;50.064;19.970;2022-08-18T02:30:38;35.50;38.00
21085;DHT22;34247;50.064;19.970;2022-08-18T02:31:43;35.50;38.70
21085;DHT22;34247;50.064;19.970;2022-08-18T02:32:47;35.50;38.00
21085;DHT22;34247;50.064;19.970;2022-08-18T02:33:52;35.50;38.00
21085;DHT22;34247;50.064;19.970;2022-08-18T02:34:56;35.50;38.10
21085;DHT22;34247;50.064;19.970;2022-08-18T02:36:00;35.50;38.10
21085;DHT22;34247;50.064;19.970;2022-08-18T02:37:05;35.50;38.10
21085;DHT22;34247;50.064;19.970;2022-08-18T02:38:15;35.50;38.00
21085;DHT22;34247;50.064;19.970;2022-08-18T02:39:20;35.50;38.00
21085;DHT22;34247;50.064;19.970;2022-08-18T02:40:24;35.50;38.00
21085;DHT22;34247;50.064;19.970;2022-08-18T02:41:28;35.50;38.00
21085;DHT22;34247;50.064;19.970;2022-08-18T02:42:33;35.50;38.00
21085;DHT22;34247;50.064;19.970;2022-08-18T02:43:38;35.40;37.90
21085;DHT22;34247;50.064;19.970;2022-08-18T02:44:43;35.40;38.00
21085;DHT22;34247;50.064;19.970;2022-08-18T02:45:47;35.40;37.90
21085;DHT22;34247;50.064;19.970;2022-08-18T02:46:53;35.40;37.90
21085;DHT22;34247;50.064;19.970;2022-08-18T02:47:57;35.50;38.00
21085;DHT22;34247;50.064;19.970;2022-08-18T02:49:01;35.50;38.00
21085;DHT22;34247;50.064;19.970;2022-08-18T02:50:06;35.40;38.00
21085;DHT22;34247;50.064;19.970;2022-08-18T02:51:15;35.40;38.10
21085;DHT22;34247;50.064;19.970;2022-08-18T02:52:20;35.40;38.10
21085;DHT22;34247;50.064;19.970;2022-08-18T02:53:23;35.40;38.10
21085;DHT22;34247;50.064;19.970;2022-08-18T02:54:27;35.40;38.10
21085;DHT22;34247;50.064;19.970;2022-08-18T02:55:31;35.40;38.20
21085;DHT22;34247;50.064;19.970;2022-08-18T02:56:35;35.40;38.20
21085;DHT22;34247;50.064;19.970;2022-08-18T02:57:46;35.40;38.20
21085;DHT22;34247;50.064;19.970;2022-08-18T02:58:59;35.40;38.20
21085;DHT22;34247;50.064;19.970;2022-08-18T03:00:10;35.30;38.20
21085;DHT22;34247;50.064;19.970;2022-08-18T03:01:28;35.30;38.30
21085;DHT22;34247;50.064;19.970;2022-08-18T03:02:34;35.30;38.30
21085;DHT22;34247;50.064;19.970;2022-08-18T03:03:38;35.30;38.20
21085;DHT22;34247;50.064;19.970;2022-08-18T03:04:42;35.30;38.20
21085;DHT22;34247;50.064;19.970;2022-08-18T03:05:46;35.30;38.30
21085;DHT22;34247;50.064;19.970;2022-08-18T03:06:50;35.30;38.40
21085;DHT22;34247;50.064;19.970;2022-08-18T03:07:55;35.30;38.30
21085;DHT22;34247;50.064;19.970;2022-08-18T03:08:59;35.30;38.40
21085;DHT22;34247;50.064;19.970;2022-08-18T03:10:04;35.30;38.50
21085;DHT22;34247;50.064;19.970;2022-08-18T03:11:30;35.20;38.50
21085;DHT22;34247;50.064;19.970;2022-08-18T03:12:34;35.20;38.40
21085;DHT22;34247;50.064;19.970;2022-08-18T03:13:38;35.20;38.50
21085;DHT22;34247;50.064;19.970;2022-08-18T03:14:42;35.20;38.50
21085;DHT22;34247;50.064;19.970;2022-08-18T03:15:46;35.20;38.50
21085;DHT22;34247;50.064;19.970;2022-08-18T03:16:56;35.20;38.50
21085;DHT22;34247;50.064;19.970;2022-08-18T03:18:00;35.20;38.60
21085;DHT22;34247;50.064;19.970;2022-08-18T03:19:04;35.20;38.60
21085;DHT22;34247;50.064;19.970;2022-08-18T03:20:09;35.20;38.60
21085;DHT22;34247;50.064;19.970;2022-08-18T03:21:20;35.10;38.70
21085;DHT22;34247;50.064;19.970;2022-08-18T03:22:25;35.10;38.70
21085;DHT22;34247;50.064;19.970;2022-08-18T03:23:33;35.10;39.30
21085;DHT22;34247;50.064;19.970;2022-08-18T03:24:37;35.10;38.70
21085;DHT22;34247;50.064;19.970;2022-08-18T03:25:46;35.10;38.70
21085;DHT22;34247;50.064;19.970;2022-08-18T03:26:52;35.10;38.60
21085;DHT22;34247;50.064;19.970;2022-08-18T03:28:00;35.10;38.70
21085;DHT22;34247;50.064;19.970;2022-08-18T03:29:06;35.00;38.60
21085;DHT22;34247;50.064;19.970;2022-08-18T03:30:10;35.10;38.50
21085;DHT22;34247;50.064;19.970;2022-08-18T03:31:17;35.00;38.60
21085;DHT22;34247;50.064;19.970;2022-08-18T03:32:26;35.00;38.60
21085;DHT22;34247;50.064;19.970;2022-08-18T03:33:29;35.00;38.70
21085;DHT22;34247;50.064;19.970;2022-08-18T03:34:33;35.00;38.70
21085;DHT22;34247;50.064;19.970;2022-08-18T03:35:37;35.00;38.70
21085;DHT22;34247;50.064;19.970;2022-08-18T03:36:42;35.00;38.80
21085;DHT22;34247;50.064;19.970;2022-08-18T03:37:47;35.00;38.80
21085;DHT22;34247;50.064;19.970;2022-08-18T03:38:52;35.00;38.80
21085;DHT22;34247;50.064;19.970;2022-08-18T03:39:56;35.00;38.80
21085;DHT22;34247;50.064;19.970;2022-08-18T03:41:01;35.00;38.90
21085;DHT22;34247;50.064;19.970;2022-08-18T03:42:04;35.00;38.90
21085;DHT22;34247;50.064;19.970;2022-08-18T03:43:08;34.90;38.80
21085;DHT22;34247;50.064;19.970;2022-08-18T03:44:34;34.90;38.80
21085;DHT22;34247;50.064;19.970;2022-08-18T03:45:39;34.90;38.80
21085;DHT22;34247;50.064;19.970;2022-08-18T03:46:44;34.90;38.80
21085;DHT22;34247;50.064;19.970;2022-08-18T03:47:48;34.90;38.80
21085;DHT22;34247;50.064;19.970;2022-08-18T03:48:56;34.90;38.90
21085;DHT22;34247;50.064;19.970;2022-08-18T03:50:00;34.90;39.60
21085;DHT22;34247;50.064;19.970;2022-08-18T03:51:06;34.90;38.80
21085;DHT22;34247;50.064;19.970;2022-08-18T03:52:13;34.90;38.90
21085;DHT22;34247;50.064;19.970;2022-08-18T03:53:17;34.90;38.90
21085;DHT22;34247;50.064;19.970;2022-08-18T03:54:22;34.90;39.00
21085;DHT22;34247;50.064;19.970;2022-08-18T03:55:27;34.90;38.90
21085;DHT22;34247;50.064;19.970;2022-08-18T03:56:37;34.90;38.90
21085;DHT22;34247;50.064;19.970;2022-08-18T03:57:43;34.90;38.90
21085;DHT22;34247;50.064;19.970;2022-08-18T03:59:09;34.90;38.90
21085;DHT22;34247;50.064;19.970;2022-08-18T04:00:15;34.90;39.00
21085;DHT22;34247;50.064;19.970;2022-08-18T04:01:23;34.90;38.90
21085;DHT22;34247;50.064;19.970;2022-08-18T04:02:29;34.90;39.00
21085;DHT22;34247;50.064;19.970;2022-08-18T04:03:33;34.90;38.90
21085;DHT22;34247;50.064;19.970;2022-08-18T04:04:39;35.00;39.00
21085;DHT22;34247;50.064;19.970;2022-08-18T04:05:45;35.00;39.10
21085;DHT22;34247;50.064;19.970;2022-08-18T04:06:56;35.00;39.00
21085;DHT22;34247;50.064;19.970;2022-08-18T04:08:03;35.00;39.00
21085;DHT22;34247;50.064;19.970;2022-08-18T04:09:12;34.90;38.80
21085;DHT22;34247;50.064;19.970;2022-08-18T04:10:17;34.90;38.80
21085;DHT22;34247;50.064;19.970;2022-08-18T04:11:23;34.90;38.80
21085;DHT22;34247;50.064;19.970;2022-08-18T04:12:27;34.90;38.90
21085;DHT22;34247;50.064;19.970;2022-08-18T04:13:32;34.90;39.00
21085;DHT22;34247;50.064;19.970;2022-08-18T04:14:40;34.90;38.90
21085;DHT22;34247;50.064;19.970;2022-08-18T04:15:46;34.90;39.10
21085;DHT22;34247;50.064;19.970;2022-08-18T04:16:50;34.80;39.00
21085;DHT22;34247;50.064;19.970;2022-08-18T04:17:58;34.80;39.00
21085;DHT22;34247;50.064;19.970;2022-08-18T04:19:09;34.80;39.00
21085;DHT22;34247;50.064;19.970;2022-08-18T04:20:16;34.80;39.10
21085;DHT22;34247;50.064;19.970;2022-08-18T04:21:20;34.80;39.10
21085;DHT22;34247;50.064;19.970;2022-08-18T04:22:26;34.80;39.00
21085;DHT22;34247;50.064;19.970;2022-08-18T04:23:30;34.80;39.10
21085;DHT22;34247;50.064;19.970;2022-08-18T04:24:47;34.80;39.20
21085;DHT22;34247;50.064;19.970;2022-08-18T04:25:57;34.70;39.20
21085;DHT22;34247;50.064;19.970;2022-08-18T04:27:03;34.70;39.20
21085;DHT22;34247;50.064;19.970;2022-08-18T04:28:07;34.70;39.10
21085;DHT22;34247;50.064;19.970;2022-08-18T04:29:13;34.70;39.10
21085;DHT22;34247;50.064;19.970;2022-08-18T04:30:19;34.70;39.20
21085;DHT22;34247;50.064;19.970;2022-08-18T04:31:24;34.70;39.10
21085;DHT22;34247;50.064;19.970;2022-08-18T04:32:29;34.70;39.00
21085;DHT22;34247;50.064;19.970;2022-08-18T04:33:34;34.80;39.10
21085;DHT22;34247;50.064;19.970;2022-08-18T04:34:38;34.70;39.00
21085;DHT22;34247;50.064;19.970;2022-08-18T04:35:42;34.80;39.00
21085;DHT22;34247;50.064;19.970;2022-08-18T04:36:47;34.80;39.10
21085;DHT22;34247;50.064;19.970;2022-08-18T04:37:52;34.80;39.00
21085;DHT22;34247;50.064;19.970;2022-08-18T04:38:57;34.80;39.00
21085;DHT22;34247;50.064;19.970;2022-08-18T04:40:01;34.80;39.10
21085;DHT22;34247;50.064;19.970;2022-08-18T04:41:11;34.80;39.00
21085;DHT22;34247;50.064;19.970;2022-08-18T04:42:16;34.80;39.00
21085;DHT22;34247;50.064;19.970;2022-08-18T04:43:19;34.80;39.00
21085;DHT22;34247;50.064;19.970;2022-08-18T04:44:24;34.80;39.00
21085;DHT22;34247;50.064;19.970;2022-08-18T04:45:28;34.80;39.10
21085;DHT22;34247;50.064;19.970;2022-08-18T04:46:37;34.90;38.90
21085;DHT22;34247;50.064;19.970;2022-08-18T04:47:43;34.90;39.00
21085;DHT22;34247;50.064;19.970;2022-08-18T04:48:47;34.90;39.00
21085;DHT22;34247;50.064;19.970;2022-08-18T04:49:51;34.90;39.00
21085;DHT22;34247;50.064;19.970;2022-08-18T04:50:55;34.90;39.00
21085;DHT22;34247;50.064;19.970;2022-08-18T04:51:59;34.90;39.00
21085;DHT22;34247;50.064;19.970;2022-08-18T04:53:43;34.80;39.00
21085;DHT22;34247;50.064;19.970;2022-08-18T04:54:48;34.90;39.10
21085;DHT22;34247;50.064;19.970;2022-08-18T04:55:54;34.90;39.00
21085;DHT22;34247;50.064;19.970;2022-08-18T04:56:58;34.90;39.00
21085;DHT22;34247;50.064;19.970;2022-08-18T04:58:10;34.90;38.80
21085;DHT22;34247;50.064;19.970;2022-08-18T04:59:13;35.00;39.00
21085;DHT22;34247;50.064;19.970;2022-08-18T05:00:18;34.90;38.90
21085;DHT22;34247;50.064;19.970;2022-08-18T05:01:26;35.00;38.80
21085;DHT22;34247;50.064;19.970;2022-08-18T05:02:32;35.00;38.90
21085;DHT22;34247;50.064;19.970;2022-08-18T05:03:37;34.90;38.90
21085;DHT22;34247;50.064;19.970;2022-08-18T05:04:52;35.00;38.90
21085;DHT22;34247;50.064;19.970;2022-08-18T05:06:03;34.90;38.90
21085;DHT22;34247;50.064;19.970;2022-08-18T05:07:10;35.00;38.70
21085;DHT22;34247;50.064;19.970;2022-08-18T05:08:14;35.00;38.80
21085;DHT22;34247;50.064;19.970;2022-08-18T05:09:19;35.00;38.70
21085;DHT22;34247;50.064;19.970;2022-08-18T05:10:25;35.00;38.60
21085;DHT22;34247;50.064;19.970;2022-08-18T05:11:30;35.00;38.60
21085;DHT22;34247;50.064;19.970;2022-08-18T05:12:38;35.00;38.70
21085;DHT22;34247;50.064;19.970;2022-08-18T05:13:47;35.00;38.80
21085;DHT22;34247;50.064;19.970;2022-08-18T05:14:52;35.00;38.80
21085;DHT22;34247;50.064;19.970;2022-08-18T05:16:00;35.00;38.80
21085;DHT22;34247;50.064;19.970;2022-08-18T05:17:19;35.00;38.80
21085;DHT22;34247;50.064;19.970;2022-08-18T05:18:23;35.00;38.90
21085;DHT22;34247;50.064;19.970;2022-08-18T05:19:29;35.00;39.00
21085;DHT22;34247;50.064;19.970;2022-08-18T05:20:33;35.00;39.00
21085;DHT22;34247;50.064;19.970;2022-08-18T05:21:40;34.90;38.90
21085;DHT22;34247;50.064;19.970;2022-08-18T05:22:44;35.00;39.00
21085;DHT22;34247;50.064;19.970;2022-08-18T05:23:49;35.00;39.00
21085;DHT22;34247;50.064;19.970;2022-08-18T05:24:53;35.00;39.00
21085;DHT22;34247;50.064;19.970;2022-08-18T05:26:12;35.00;39.00
21085;DHT22;34247;50.064;19.970;2022-08-18T05:27:38;35.00;39.10
21085;DHT22;34247;50.064;19.970;2022-08-18T05:28:46;35.10;39.20
21085;DHT22;34247;50.064;19.970;2022-08-18T05:29:57;35.10;39.20
21085;DHT22;34247;50.064;19.970;2022-08-18T05:31:16;35.10;39.10
21085;DHT22;34247;50.064;19.970;2022-08-18T05:32:22;35.10;39.10
21085;DHT22;34247;50.064;19.970;2022-08-18T05:33:46;35.10;39.20
21085;DHT22;34247;50.064;19.970;2022-08-18T05:34:50;35.10;39.20
21085;DHT22;34247;50.064;19.970;2022-08-18T05:36:02;35.20;39.40
21085;DHT22;34247;50.064;19.970;2022-08-18T05:37:15;35.20;39.30
21085;DHT22;34247;50.064;19.970;2022-08-18T05:39:53;35.30;39.50
21085;DHT22;34247;50.064;19.970;2022-08-18T05:41:07;35.30;39.30
21085;DHT22;34247;50.064;19.970;2022-08-18T05:42:19;35.40;39.30
21085;DHT22;34247;50.064;19.970;2022-08-18T05:43:25;35.40;39.20
21085;DHT22;34247;50.064;19.970;2022-08-18T05:44:32;35.50;38.90
21085;DHT22;34247;50.064;19.970;2022-08-18T05:45:40;35.50;38.90
21085;DHT22;34247;50.064;19.970;2022-08-18T05:46:55;35.60;38.90
21085;DHT22;34247;50.064;19.970;2022-08-18T05:48:07;35.70;38.90
21085;DHT22;34247;50.064;19.970;2022-08-18T05:49:12;35.70;38.70
21085;DHT22;34247;50.064;19.970;2022-08-18T05:50:19;35.80;38.60
21085;DHT22;34247;50.064;19.970;2022-08-18T05:51:30;35.80;38.60
21085;DHT22;34247;50.064;19.970;2022-08-18T05:53:58;35.90;38.40
21085;DHT22;34247;50.064;19.970;2022-08-18T05:55:35;36.00;38.20
21085;DHT22;34247;50.064;19.970;2022-08-18T05:57:05;36.10;38.20
21085;DHT22;34247;50.064;19.970;2022-08-18T05:58:45;36.10;38.20
21085;DHT22;34247;50.064;19.970;2022-08-18T05:59:54;36.20;38.20
21085;DHT22;34247;50.064;19.970;2022-08-18T06:01:06;36.20;38.10
21085;DHT22;34247;50.064;19.970;2022-08-18T06:03:51;36.40;37.90
21085;DHT22;34247;50.064;19.970;2022-08-18T06:05:37;36.50;37.90
21085;DHT22;34247;50.064;19.970;2022-08-18T06:06:47;36.60;37.70
21085;DHT22;34247;50.064;19.970;2022-08-18T06:09:32;36.70;37.50
21085;DHT22;34247;50.064;19.970;2022-08-18T06:10:48;36.80;37.50
21085;DHT22;34247;50.064;19.970;2022-08-18T06:11:57;36.90;37.50
21085;DHT22;34247;50.064;19.970;2022-08-18T06:13:11;36.90;37.10
21085;DHT22;34247;50.064;19.970;2022-08-18T06:14:16;37.00;37.10
21085;DHT22;34247;50.064;19.970;2022-08-18T06:18:47;37.30;36.80
21085;DHT22;34247;50.064;19.970;2022-08-18T06:20:06;37.30;36.80
21085;DHT22;34247;50.064;19.970;2022-08-18T06:21:31;37.40;36.40
21085;DHT22;34247;50.064;19.970;2022-08-18T06:24:34;37.60;36.10
21085;DHT22;34247;50.064;19.970;2022-08-18T06:29:21;37.90;35.60
21085;DHT22;34247;50.064;19.970;2022-08-18T06:33:45;38.30;34.80
21085;DHT22;34247;50.064;19.970;2022-08-18T06:37:05;38.50;34.70
21085;DHT22;34247;50.064;19.970;2022-08-18T06:39:50;38.60;34.60
21085;DHT22;34247;50.064;19.970;2022-08-18T06:41:23;38.80;34.10
21085;DHT22;34247;50.064;19.970;2022-08-18T06:42:45;38.90;33.90
21085;DHT22;34247;50.064;19.970;2022-08-18T06:44:13;39.00;33.30
21085;DHT22;34247;50.064;19.970;2022-08-18T06:45:33;39.10;33.30
21085;DHT22;34247;50.064;19.970;2022-08-18T06:46:52;39.20;33.40
21085;DHT22;34247;50.064;19.970;2022-08-18T06:48:15;39.30;33.30
21085;DHT22;34247;50.064;19.970;2022-08-18T06:50:59;39.50;32.60
21085;DHT22;34247;50.064;19.970;2022-08-18T06:55:07;39.90;31.60
21085;DHT22;34247;50.064;19.970;2022-08-18T06:57:51;40.10;31.10
21085;DHT22;34247;50.064;19.970;2022-08-18T06:59:20;40.20;30.90
21085;DHT22;34247;50.064;19.970;2022-08-18T07:00:29;40.40;30.60
21085;DHT22;34247;50.064;19.970;2022-08-18T07:01:37;40.40;30.50
21085;DHT22;34247;50.064;19.970;2022-08-18T07:02:48;40.50;30.30
21085;DHT22;34247;50.064;19.970;2022-08-18T07:03:56;40.60;30.20
21085;DHT22;34247;50.064;19.970;2022-08-18T07:05:02;40.70;30.10
21085;DHT22;34247;50.064;19.970;2022-08-18T07:08:46;41.00;29.60
21085;DHT22;34247;50.064;19.970;2022-08-18T07:09:54;41.10;29.60
21085;DHT22;34247;50.064;19.970;2022-08-18T07:12:27;41.30;29.20
21085;DHT22;34247;50.064;19.970;2022-08-18T07:13:38;41.50;29.10
21085;DHT22;34247;50.064;19.970;2022-08-18T07:14:47;41.60;28.80
21085;DHT22;34247;50.064;19.970;2022-08-18T07:17:37;41.80;28.50
21085;DHT22;34247;50.064;19.970;2022-08-18T07:18:46;41.90;28.40
21085;DHT22;34247;50.064;19.970;2022-08-18T07:21:28;42.20;27.80
21085;DHT22;34247;50.064;19.970;2022-08-18T07:22:56;42.30;27.70
21085;DHT22;34247;50.064;19.970;2022-08-18T07:24:26;42.50;27.50
21085;DHT22;34247;50.064;19.970;2022-08-18T07:25:40;42.70;27.30
21085;DHT22;34247;50.064;19.970;2022-08-18T07:27:03;42.80;27.10
21085;DHT22;34247;50.064;19.970;2022-08-18T07:28:34;42.90;27.10
21085;DHT22;34247;50.064;19.970;2022-08-18T07:31:54;43.20;26.70
21085;DHT22;34247;50.064;19.970;2022-08-18T07:33:03;43.30;26.30
21085;DHT22;34247;50.064;19.970;2022-08-18T07:34:30;43.50;27.00
21085;DHT22;34247;50.064;19.970;2022-08-18T07:35:50;43.60;26.20
21085;DHT22;34247;50.064;19.970;2022-08-18T07:37:03;43.70;26.00
21085;DHT22;34247;50.064;19.970;2022-08-18T07:40:02;43.90;25.80
21085;DHT22;34247;50.064;19.970;2022-08-18T07:41:15;44.10;25.80
21085;DHT22;34247;50.064;19.970;2022-08-18T07:47:01;44.70;24.80
21085;DHT22;34247;50.064;19.970;2022-08-18T07:48:20;44.80;24.60
21085;DHT22;34247;50.064;19.970;2022-08-18T07:49:42;44.90;24.60
21085;DHT22;34247;50.064;19.970;2022-08-18T07:52:43;45.20;24.00
21085;DHT22;34247;50.064;19.970;2022-08-18T07:55:57;45.50;23.70
21085;DHT22;34247;50.064;19.970;2022-08-18T07:59:14;45.80;23.50
21085;DHT22;34247;50.064;19.970;2022-08-18T08:00:43;45.90;23.40
21085;DHT22;34247;50.064;19.970;2022-08-18T08:04:10;46.10;23.20
21085;DHT22;34247;50.064;19.970;2022-08-18T08:07:11;46.30;23.00
21085;DHT22;34247;50.064;19.970;2022-08-18T08:12:03;46.60;22.70